PAC14T RJCC-UHPP
Flight info
| Callsign | PAC14T |
|---|---|
| Flight time | N/A |
| Altitude | 35000 |
| Route | KURIS V1 BEEBA V8 LUBEK Y116 MVE G583 BISIV/K0885F360 G583 UB T577 SAMIK SAMIK5P |
| Aircraft | B77L/H-SDE1E2E3FGHIJ2J3J4J5M1RWXY/LB1D1 |
Departure
| Time | N/A |
|---|---|
| Airport | New Chitose Airport (RJCC) |
Arrival
| Time | 2026-04-12 08:40 |
|---|---|
| Airport | Yelizovo Airport (UHPP) |
| Time | Latitude | Longitude | Altitude | Speed | Heading |
|---|---|---|---|---|---|
| 2026-04-12 07:20 | 47.45475 | 147.47075 | 36245 ft | 513 kts | 41° |
| 2026-04-12 07:20 | 47.50684 | 147.54303 | 36237 ft | 513 kts | 41° |
| 2026-04-12 07:21 | 47.55844 | 147.61485 | 36230 ft | 512 kts | 41° |
| 2026-04-12 07:21 | 47.61060 | 147.68763 | 36225 ft | 512 kts | 41° |
| 2026-04-12 07:22 | 47.66207 | 147.75966 | 36218 ft | 511 kts | 41° |
| 2026-04-12 07:22 | 47.71377 | 147.83224 | 36215 ft | 511 kts | 41° |
| 2026-04-12 07:23 | 47.76550 | 147.90505 | 36210 ft | 511 kts | 41° |
| 2026-04-12 07:23 | 47.81691 | 147.97762 | 36206 ft | 511 kts | 41° |
| 2026-04-12 07:24 | 47.86852 | 148.05069 | 36206 ft | 512 kts | 41° |
| 2026-04-12 07:24 | 47.92007 | 148.12388 | 36202 ft | 512 kts | 42° |
| 2026-04-12 07:25 | 47.97166 | 148.19735 | 36203 ft | 512 kts | 42° |
| 2026-04-12 07:25 | 48.02288 | 148.27049 | 36203 ft | 513 kts | 42° |
| 2026-04-12 07:26 | 48.07443 | 148.34432 | 36202 ft | 513 kts | 42° |
| 2026-04-12 07:26 | 48.12596 | 148.41834 | 36207 ft | 513 kts | 42° |
| 2026-04-12 07:27 | 48.17744 | 148.49250 | 36204 ft | 513 kts | 43° |
| 2026-04-12 07:27 | 48.22881 | 148.56673 | 36209 ft | 513 kts | 43° |
| 2026-04-12 07:28 | 48.28025 | 148.64127 | 36211 ft | 513 kts | 43° |
| 2026-04-12 07:28 | 48.33115 | 148.71526 | 36216 ft | 513 kts | 43° |
| 2026-04-12 07:29 | 48.38236 | 148.78990 | 36218 ft | 513 kts | 43° |
| 2026-04-12 07:29 | 48.43358 | 148.86478 | 36225 ft | 512 kts | 43° |
| 2026-04-12 07:30 | 48.48478 | 148.93986 | 36225 ft | 512 kts | 43° |
| 2026-04-12 07:30 | 48.53576 | 149.01483 | 36227 ft | 512 kts | 43° |
| 2026-04-12 07:31 | 48.58644 | 149.08959 | 36231 ft | 512 kts | 43° |
| 2026-04-12 07:31 | 48.63740 | 149.16499 | 36234 ft | 512 kts | 44° |
| 2026-04-12 07:32 | 48.68799 | 149.24005 | 36235 ft | 512 kts | 44° |
| 2026-04-12 07:32 | 48.73878 | 149.31565 | 36238 ft | 511 kts | 44° |
| 2026-04-12 07:33 | 48.78947 | 149.39133 | 36237 ft | 511 kts | 44° |
| 2026-04-12 07:33 | 48.84023 | 149.46732 | 36239 ft | 511 kts | 44° |
| 2026-04-12 07:34 | 48.89078 | 149.54324 | 36245 ft | 511 kts | 44° |
| 2026-04-12 07:34 | 48.94106 | 149.61898 | 36248 ft | 511 kts | 44° |
| 2026-04-12 07:35 | 48.99173 | 149.69553 | 36244 ft | 512 kts | 44° |
| 2026-04-12 07:35 | 49.04215 | 149.77195 | 36248 ft | 512 kts | 44° |
| 2026-04-12 07:36 | 49.09263 | 149.84868 | 36250 ft | 512 kts | 45° |
| 2026-04-12 07:36 | 49.14277 | 149.92515 | 36252 ft | 512 kts | 45° |
| 2026-04-12 07:37 | 49.19317 | 150.00220 | 36255 ft | 513 kts | 45° |
| 2026-04-12 07:37 | 49.24357 | 150.07944 | 36254 ft | 513 kts | 45° |
| 2026-04-12 07:38 | 49.29394 | 150.15685 | 36256 ft | 513 kts | 45° |
| 2026-04-12 07:38 | 49.34426 | 150.23444 | 36259 ft | 513 kts | 45° |
| 2026-04-12 07:39 | 49.39430 | 150.31183 | 36260 ft | 513 kts | 45° |
| 2026-04-12 07:39 | 49.44452 | 150.38975 | 36261 ft | 513 kts | 45° |
| 2026-04-12 07:40 | 49.49474 | 150.46792 | 36260 ft | 513 kts | 45° |
| 2026-04-12 07:40 | 49.54488 | 150.54619 | 36263 ft | 513 kts | 45° |
| 2026-04-12 07:41 | 49.59459 | 150.62403 | 36263 ft | 513 kts | 46° |
| 2026-04-12 07:41 | 49.64458 | 150.70257 | 36258 ft | 513 kts | 46° |
| 2026-04-12 07:42 | 49.69457 | 150.78134 | 36258 ft | 513 kts | 46° |
| 2026-04-12 07:43 | 49.79440 | 150.93939 | 36257 ft | 513 kts | 46° |
| 2026-04-12 07:43 | 49.84387 | 151.01809 | 36256 ft | 513 kts | 46° |
| 2026-04-12 07:44 | 49.89363 | 151.09749 | 36257 ft | 513 kts | 46° |
| 2026-04-12 07:44 | 49.94341 | 151.17719 | 36258 ft | 513 kts | 46° |
| 2026-04-12 07:45 | 49.99273 | 151.25638 | 36253 ft | 513 kts | 46° |
| 2026-04-12 07:45 | 50.04233 | 151.33627 | 36255 ft | 513 kts | 47° |
| 2026-04-12 07:46 | 50.09188 | 151.41636 | 36251 ft | 513 kts | 47° |
| 2026-04-12 07:46 | 50.14132 | 151.49655 | 36253 ft | 513 kts | 47° |
| 2026-04-12 07:47 | 50.19039 | 151.57640 | 36251 ft | 513 kts | 47° |
| 2026-04-12 07:47 | 50.23975 | 151.65697 | 36253 ft | 513 kts | 47° |
| 2026-04-12 07:48 | 50.28900 | 151.73763 | 36250 ft | 513 kts | 47° |
| 2026-04-12 07:48 | 50.33824 | 151.81852 | 36248 ft | 513 kts | 47° |
| 2026-04-12 07:49 | 50.38718 | 151.89917 | 36251 ft | 512 kts | 47° |
| 2026-04-12 07:49 | 50.43624 | 151.98029 | 36248 ft | 512 kts | 48° |
| 2026-04-12 07:50 | 50.48530 | 152.06166 | 36248 ft | 512 kts | 48° |
| 2026-04-12 07:50 | 50.53417 | 152.14299 | 36252 ft | 512 kts | 48° |
| 2026-04-12 07:51 | 50.58278 | 152.22415 | 36251 ft | 512 kts | 48° |
| 2026-04-12 07:51 | 50.63153 | 152.30580 | 36255 ft | 512 kts | 48° |
| 2026-04-12 07:52 | 50.68028 | 152.38772 | 36257 ft | 512 kts | 49° |
| 2026-04-12 07:52 | 50.72078 | 152.45598 | 36259 ft | 511 kts | 49° |
| 2026-04-12 07:53 | 50.77755 | 152.55195 | 36265 ft | 511 kts | 49° |
| 2026-04-12 07:53 | 50.82602 | 152.63421 | 36269 ft | 511 kts | 49° |
| 2026-04-12 07:54 | 50.86636 | 152.70286 | 36274 ft | 511 kts | 49° |
| 2026-04-12 07:54 | 50.91444 | 152.78494 | 36282 ft | 511 kts | 49° |
| 2026-04-12 07:55 | 50.96277 | 152.86771 | 36283 ft | 510 kts | 49° |
| 2026-04-12 07:55 | 51.01103 | 152.95064 | 36290 ft | 510 kts | 50° |
| 2026-04-12 07:56 | 51.05882 | 153.03304 | 36296 ft | 510 kts | 50° |
| 2026-04-12 07:56 | 51.10693 | 153.11625 | 36304 ft | 510 kts | 50° |
| 2026-04-12 07:57 | 51.15501 | 153.19968 | 36308 ft | 510 kts | 50° |
| 2026-04-12 07:57 | 51.20300 | 153.28324 | 36310 ft | 511 kts | 50° |
| 2026-04-12 07:58 | 51.25072 | 153.36661 | 36310 ft | 511 kts | 50° |
| 2026-04-12 07:58 | 51.29865 | 153.45062 | 36317 ft | 511 kts | 50° |
| 2026-04-12 07:59 | 51.34660 | 153.53494 | 36323 ft | 512 kts | 51° |
| 2026-04-12 07:59 | 51.39419 | 153.61891 | 36330 ft | 512 kts | 51° |
| 2026-04-12 08:00 | 51.44205 | 153.70365 | 36334 ft | 512 kts | 51° |
| 2026-04-12 08:00 | 51.48985 | 153.78858 | 36337 ft | 512 kts | 51° |
| 2026-04-12 08:01 | 51.53729 | 153.87314 | 36343 ft | 512 kts | 51° |
| 2026-04-12 08:01 | 51.58497 | 153.95840 | 36350 ft | 512 kts | 51° |
| 2026-04-12 08:02 | 51.63261 | 154.04389 | 36359 ft | 512 kts | 51° |
| 2026-04-12 08:02 | 51.68021 | 154.12962 | 36347 ft | 513 kts | 51° |
| 2026-04-12 08:03 | 51.72737 | 154.21482 | 36352 ft | 513 kts | 52° |
| 2026-04-12 08:03 | 51.77492 | 154.30104 | 36358 ft | 513 kts | 52° |
| 2026-04-12 08:04 | 51.82241 | 154.38744 | 36369 ft | 513 kts | 52° |
| 2026-04-12 08:04 | 51.86949 | 154.47338 | 36372 ft | 513 kts | 52° |
| 2026-04-12 08:05 | 51.91694 | 154.56029 | 36373 ft | 514 kts | 52° |
| 2026-04-12 08:05 | 51.96393 | 154.64666 | 36378 ft | 514 kts | 52° |
| 2026-04-12 08:06 | 52.01126 | 154.73397 | 36374 ft | 515 kts | 52° |
| 2026-04-12 08:06 | 52.05853 | 154.82147 | 36379 ft | 515 kts | 52° |
| 2026-04-12 08:07 | 52.10584 | 154.90935 | 36380 ft | 515 kts | 52° |
| 2026-04-12 08:07 | 52.15265 | 154.99659 | 36384 ft | 515 kts | 52° |
| 2026-04-12 08:08 | 52.19975 | 155.08470 | 36383 ft | 515 kts | 53° |
| 2026-04-12 08:08 | 52.24682 | 155.17303 | 36382 ft | 514 kts | 53° |
| 2026-04-12 08:09 | 52.29368 | 155.26130 | 36386 ft | 514 kts | 53° |
| 2026-04-12 08:09 | 52.34025 | 155.34928 | 36370 ft | 504 kts | 53° |
| 2026-04-12 08:10 | 52.36272 | 155.39180 | 36171 ft | 496 kts | 53° |
| 2026-04-12 08:10 | 52.38515 | 155.43436 | 35737 ft | 492 kts | 53° |
| 2026-04-12 08:10 | 52.40738 | 155.47663 | 35346 ft | 486 kts | 53° |
| 2026-04-12 08:10 | 52.42937 | 155.51854 | 34933 ft | 482 kts | 54° |
| 2026-04-12 08:11 | 52.45111 | 155.56004 | 34519 ft | 478 kts | 54° |
| 2026-04-12 08:11 | 52.47271 | 155.60134 | 34101 ft | 474 kts | 54° |
| 2026-04-12 08:11 | 52.49414 | 155.64238 | 33666 ft | 471 kts | 54° |
| 2026-04-12 08:11 | 52.51541 | 155.68318 | 33222 ft | 468 kts | 55° |
| 2026-04-12 08:12 | 52.53626 | 155.72323 | 32762 ft | 464 kts | 55° |
| 2026-04-12 08:12 | 52.55715 | 155.76341 | 32329 ft | 459 kts | 55° |
| 2026-04-12 08:12 | 52.57778 | 155.80317 | 31913 ft | 455 kts | 56° |
| 2026-04-12 08:12 | 52.59824 | 155.84266 | 31508 ft | 450 kts | 56° |
| 2026-04-12 08:13 | 52.61846 | 155.88173 | 31111 ft | 446 kts | 56° |
| 2026-04-12 08:13 | 52.63841 | 155.92035 | 30720 ft | 441 kts | 56° |
| 2026-04-12 08:13 | 52.65818 | 155.95875 | 30326 ft | 437 kts | 56° |
| 2026-04-12 08:13 | 52.67776 | 155.99687 | 29949 ft | 433 kts | 57° |
| 2026-04-12 08:14 | 52.69688 | 156.03418 | 29572 ft | 430 kts | 57° |
| 2026-04-12 08:14 | 52.71612 | 156.07180 | 29103 ft | 426 kts | 57° |
| 2026-04-12 08:14 | 52.73512 | 156.10902 | 28678 ft | 421 kts | 57° |
| 2026-04-12 08:14 | 52.75386 | 156.14572 | 28284 ft | 415 kts | 57° |
| 2026-04-12 08:15 | 52.77238 | 156.18205 | 27909 ft | 410 kts | 57° |
| 2026-04-12 08:15 | 52.79063 | 156.21793 | 27529 ft | 405 kts | 58° |
| 2026-04-12 08:15 | 52.80654 | 156.25483 | 27127 ft | 392 kts | 68° |
| 2026-04-12 08:15 | 52.81889 | 156.29422 | 26770 ft | 381 kts | 74° |
| 2026-04-12 08:16 | 52.82812 | 156.33477 | 26370 ft | 371 kts | 82° |
| 2026-04-12 08:16 | 52.83523 | 156.37536 | 25994 ft | 365 kts | 83° |
| 2026-04-12 08:16 | 52.84201 | 156.41563 | 25627 ft | 362 kts | 83° |
| 2026-04-12 08:16 | 52.84870 | 156.45568 | 25259 ft | 358 kts | 83° |
| 2026-04-12 08:17 | 52.85533 | 156.49534 | 24897 ft | 355 kts | 83° |
| 2026-04-12 08:17 | 52.86183 | 156.53410 | 24547 ft | 352 kts | 83° |
| 2026-04-12 08:17 | 52.86840 | 156.57307 | 24177 ft | 350 kts | 83° |
| 2026-04-12 08:17 | 52.87493 | 156.61177 | 23825 ft | 347 kts | 83° |
| 2026-04-12 08:18 | 52.88141 | 156.65016 | 23481 ft | 344 kts | 83° |
| 2026-04-12 08:18 | 52.88784 | 156.68826 | 23132 ft | 342 kts | 83° |
| 2026-04-12 08:18 | 52.89414 | 156.72568 | 22732 ft | 339 kts | 83° |
| 2026-04-12 08:18 | 52.90045 | 156.76315 | 22332 ft | 336 kts | 83° |
| 2026-04-12 08:19 | 52.90669 | 156.80026 | 21980 ft | 332 kts | 83° |
| 2026-04-12 08:19 | 52.91284 | 156.83694 | 21628 ft | 328 kts | 83° |
| 2026-04-12 08:19 | 52.91890 | 156.87313 | 21285 ft | 324 kts | 83° |
| 2026-04-12 08:19 | 52.92480 | 156.90848 | 20945 ft | 320 kts | 83° |
| 2026-04-12 08:20 | 52.93070 | 156.94394 | 20605 ft | 316 kts | 83° |
| 2026-04-12 08:20 | 52.93651 | 156.97890 | 20257 ft | 313 kts | 83° |
| 2026-04-12 08:20 | 52.94226 | 157.01353 | 19935 ft | 309 kts | 83° |
| 2026-04-12 08:20 | 52.94785 | 157.04733 | 19613 ft | 306 kts | 83° |
| 2026-04-12 08:21 | 52.95352 | 157.08173 | 19289 ft | 305 kts | 83° |
| 2026-04-12 08:21 | 52.95904 | 157.11542 | 18980 ft | 309 kts | 82° |
| 2026-04-12 08:21 | 52.96475 | 157.15043 | 18639 ft | 319 kts | 82° |
| 2026-04-12 08:21 | 52.97062 | 157.18644 | 18280 ft | 324 kts | 82° |
| 2026-04-12 08:22 | 52.97656 | 157.22263 | 17923 ft | 325 kts | 82° |
| 2026-04-12 08:22 | 52.98250 | 157.25879 | 17513 ft | 323 kts | 81° |
| 2026-04-12 08:22 | 52.98838 | 157.29459 | 17119 ft | 320 kts | 82° |
| 2026-04-12 08:22 | 52.99420 | 157.33025 | 16753 ft | 316 kts | 82° |
| 2026-04-12 08:23 | 52.99983 | 157.36475 | 16420 ft | 312 kts | 82° |
| 2026-04-12 08:23 | 53.00547 | 157.39946 | 16072 ft | 309 kts | 82° |
| 2026-04-12 08:23 | 53.01102 | 157.43382 | 15704 ft | 307 kts | 82° |
| 2026-04-12 08:23 | 53.01652 | 157.46794 | 15376 ft | 304 kts | 82° |
| 2026-04-12 08:24 | 53.02190 | 157.50137 | 15038 ft | 302 kts | 82° |
| 2026-04-12 08:24 | 53.02732 | 157.53505 | 14682 ft | 300 kts | 82° |
| 2026-04-12 08:24 | 53.03265 | 157.56827 | 14340 ft | 296 kts | 82° |
| 2026-04-12 08:24 | 53.03958 | 157.60036 | 14005 ft | 299 kts | 68° |
| 2026-04-12 08:25 | 53.05309 | 157.62734 | 13716 ft | 309 kts | 48° |
| 2026-04-12 08:25 | 53.07001 | 157.64947 | 13405 ft | 310 kts | 45° |
| 2026-04-12 08:25 | 53.08734 | 157.67106 | 13025 ft | 309 kts | 45° |
| 2026-04-12 08:25 | 53.10451 | 157.69235 | 12674 ft | 306 kts | 45° |
| 2026-04-12 08:26 | 53.12118 | 157.71311 | 12373 ft | 301 kts | 45° |
| 2026-04-12 08:26 | 53.13783 | 157.73402 | 12041 ft | 297 kts | 45° |
| 2026-04-12 08:26 | 53.15426 | 157.75477 | 11739 ft | 294 kts | 45° |
| 2026-04-12 08:26 | 53.17047 | 157.77535 | 11438 ft | 291 kts | 46° |
| 2026-04-12 08:27 | 53.18650 | 157.79577 | 11134 ft | 288 kts | 46° |
| 2026-04-12 08:27 | 53.20216 | 157.81576 | 10851 ft | 285 kts | 46° |
| 2026-04-12 08:27 | 53.21786 | 157.83584 | 10535 ft | 283 kts | 46° |
| 2026-04-12 08:27 | 53.23340 | 157.85574 | 10240 ft | 280 kts | 46° |
| 2026-04-12 08:28 | 53.24876 | 157.87545 | 9924 ft | 276 kts | 46° |
| 2026-04-12 08:28 | 53.26383 | 157.89475 | 9823 ft | 271 kts | 46° |
| 2026-04-12 08:28 | 53.27877 | 157.91392 | 9661 ft | 269 kts | 46° |
| 2026-04-12 08:28 | 53.29373 | 157.93323 | 9392 ft | 274 kts | 46° |
| 2026-04-12 08:29 | 53.30866 | 157.95254 | 9075 ft | 273 kts | 46° |
| 2026-04-12 08:29 | 53.32357 | 157.97175 | 8801 ft | 268 kts | 46° |
| 2026-04-12 08:29 | 53.33822 | 157.99064 | 8507 ft | 264 kts | 46° |
| 2026-04-12 08:29 | 53.35270 | 158.00933 | 8208 ft | 260 kts | 46° |
| 2026-04-12 08:30 | 53.36696 | 158.02773 | 7910 ft | 258 kts | 46° |
| 2026-04-12 08:30 | 53.38096 | 158.04587 | 7591 ft | 255 kts | 46° |
| 2026-04-12 08:30 | 53.39487 | 158.06387 | 7394 ft | 248 kts | 45° |
| 2026-04-12 08:30 | 53.40843 | 158.08140 | 7340 ft | 245 kts | 46° |
| 2026-04-12 08:31 | 53.42216 | 158.09881 | 7334 ft | 252 kts | 42° |
| 2026-04-12 08:31 | 53.43716 | 158.11492 | 7330 ft | 257 kts | 39° |
| 2026-04-12 08:31 | 53.45246 | 158.13071 | 7332 ft | 257 kts | 39° |
| 2026-04-12 08:31 | 53.46712 | 158.14663 | 7313 ft | 247 kts | 48° |
| 2026-04-12 08:32 | 53.47661 | 158.16951 | 7337 ft | 234 kts | 77° |
| 2026-04-12 08:32 | 53.47824 | 158.19594 | 7340 ft | 232 kts | 99° |
| 2026-04-12 08:32 | 53.47366 | 158.22204 | 6851 ft | 238 kts | 118° |
| 2026-04-12 08:32 | 53.46350 | 158.24344 | 6249 ft | 233 kts | 136° |
| 2026-04-12 08:33 | 53.44925 | 158.25691 | 5592 ft | 236 kts | 149° |
| 2026-04-12 08:33 | 53.43397 | 158.26755 | 4944 ft | 243 kts | 151° |
| 2026-04-12 08:33 | 53.41837 | 158.27803 | 4598 ft | 236 kts | 152° |
| 2026-04-12 08:33 | 53.40367 | 158.28763 | 4394 ft | 219 kts | 151° |
| 2026-04-12 08:34 | 53.38994 | 158.29687 | 4210 ft | 207 kts | 150° |
| 2026-04-12 08:34 | 53.37693 | 158.30586 | 4027 ft | 196 kts | 150° |
| 2026-04-12 08:34 | 53.36459 | 158.31447 | 3774 ft | 186 kts | 150° |
| 2026-04-12 08:34 | 53.35308 | 158.32255 | 3529 ft | 178 kts | 150° |
| 2026-04-12 08:35 | 53.34193 | 158.33037 | 3296 ft | 170 kts | 150° |
| 2026-04-12 08:35 | 53.33127 | 158.33782 | 3081 ft | 162 kts | 150° |
| 2026-04-12 08:35 | 53.32083 | 158.34517 | 2911 ft | 164 kts | 150° |
| 2026-04-12 08:35 | 53.31028 | 158.35256 | 2692 ft | 163 kts | 150° |
| 2026-04-12 08:36 | 53.29995 | 158.35977 | 2480 ft | 157 kts | 150° |
| 2026-04-12 08:36 | 53.29030 | 158.36649 | 2273 ft | 148 kts | 150° |
| 2026-04-12 08:36 | 53.28092 | 158.37308 | 2074 ft | 146 kts | 152° |
| 2026-04-12 08:36 | 53.27147 | 158.37969 | 1868 ft | 148 kts | 155° |
| 2026-04-12 08:37 | 53.26190 | 158.38635 | 1664 ft | 148 kts | 157° |
| 2026-04-12 08:37 | 53.25242 | 158.39295 | 1460 ft | 147 kts | 160° |
| 2026-04-12 08:37 | 53.24305 | 158.39947 | 1286 ft | 145 kts | 161° |
| 2026-04-12 08:37 | 53.23373 | 158.40594 | 1109 ft | 145 kts | 160° |
| 2026-04-12 08:38 | 53.22439 | 158.41244 | 950 ft | 145 kts | 159° |
| 2026-04-12 08:38 | 53.21523 | 158.41880 | 773 ft | 144 kts | 157° |
| 2026-04-12 08:38 | 53.20601 | 158.42522 | 599 ft | 143 kts | 156° |
| 2026-04-12 08:38 | 53.19682 | 158.43153 | 428 ft | 141 kts | 156° |
| 2026-04-12 08:39 | 53.18771 | 158.43790 | 273 ft | 142 kts | 156° |
| 2026-04-12 08:39 | 53.17864 | 158.44433 | 124 ft | 135 kts | 157° |
| 2026-04-12 08:39 | 53.17117 | 158.44933 | 120 ft | 90 kts | 157° |
| 2026-04-12 08:39 | 53.16701 | 158.45224 | 124 ft | 53 kts | 158° |
| 2026-04-12 08:40 | 53.16367 | 158.45454 | 120 ft | 49 kts | 157° |
| 2026-04-12 08:40 | 53.16168 | 158.45592 | 123 ft | 17 kts | 162° |
| 2026-04-12 08:40 | 53.16083 | 158.45485 | 125 ft | 17 kts | 241° |
| 2026-04-12 08:40 | 53.16086 | 158.45346 | 139 ft | 11 kts | 320° |
| 2026-04-12 08:41 | 53.16166 | 158.45283 | 134 ft | 14 kts | 335° |
| 2026-04-12 08:41 | 53.16258 | 158.45220 | 132 ft | 14 kts | 338° |
| 2026-04-12 08:41 | 53.16354 | 158.45152 | 132 ft | 17 kts | 337° |
| 2026-04-12 08:41 | 53.16481 | 158.45063 | 139 ft | 22 kts | 338° |
| 2026-04-12 08:42 | 53.16620 | 158.44967 | 139 ft | 22 kts | 338° |
| 2026-04-12 08:42 | 53.16759 | 158.44874 | 128 ft | 23 kts | 339° |
| 2026-04-12 08:42 | 53.16912 | 158.44769 | 129 ft | 24 kts | 336° |
| 2026-04-12 08:42 | 53.17065 | 158.44663 | 132 ft | 24 kts | 337° |
| 2026-04-12 08:43 | 53.17218 | 158.44556 | 135 ft | 24 kts | 337° |
| 2026-04-12 08:43 | 53.17370 | 158.44449 | 139 ft | 24 kts | 337° |
| 2026-04-12 08:43 | 53.17489 | 158.44365 | 140 ft | 15 kts | 331° |
| 2026-04-12 08:43 | 53.17500 | 158.44207 | 148 ft | 15 kts | 250° |
| 2026-04-12 08:44 | 53.17491 | 158.44170 | 151 ft | 0 kts | 246° |
| 2026-04-12 08:44 | 53.17480 | 158.44128 | 153 ft | 6 kts | 247° |
| 2026-04-12 08:44 | 53.17444 | 158.43998 | 114 ft | 29 kts | 242° |
| 2026-04-12 08:44 | 53.17340 | 158.43700 | 111 ft | 29 kts | 240° |
| 2026-04-12 08:45 | 53.17240 | 158.43409 | 120 ft | 29 kts | 240° |
| 2026-04-12 08:45 | 53.17196 | 158.43280 | 169 ft | 0 kts | 241° |
| 2026-04-12 08:45 | 53.17196 | 158.43281 | 169 ft | 0 kts | 241° |